sensor_id;sensor_type;location;lat;lon;timestamp;pressure;altitude;pressure_sealevel;temperature;humidity
54872;BME280;43914;57.680;11.982;2023-03-14T00:01:46;96720.66;;;4.94;100.00
54872;BME280;43914;57.680;11.982;2023-03-14T00:04:12;96725.98;;;4.89;100.00
54872;BME280;43914;57.680;11.982;2023-03-14T00:06:38;96730.86;;;4.88;100.00
54872;BME280;43914;57.680;11.982;2023-03-14T00:09:03;96737.75;;;4.86;100.00
54872;BME280;43914;57.680;11.982;2023-03-14T00:11:29;96735.77;;;4.85;100.00
54872;BME280;43914;57.680;11.982;2023-03-14T00:13:55;96744.86;;;4.84;100.00
54872;BME280;43914;57.680;11.982;2023-03-14T00:16:20;96742.45;;;4.83;100.00
54872;BME280;43914;57.680;11.982;2023-03-14T00:18:46;96746.03;;;4.84;100.00
54872;BME280;43914;57.680;11.982;2023-03-14T00:21:12;96741.73;;;4.81;100.00
54872;BME280;43914;57.680;11.982;2023-03-14T00:23:39;96751.60;;;4.83;100.00
54872;BME280;43914;57.680;11.982;2023-03-14T00:26:09;96754.35;;;4.83;100.00
54872;BME280;43914;57.680;11.982;2023-03-14T00:28:35;96747.67;;;4.81;100.00
54872;BME280;43914;57.680;11.982;2023-03-14T00:31:09;96750.20;;;4.82;100.00
54872;BME280;43914;57.680;11.982;2023-03-14T00:33:35;96752.64;;;4.82;100.00
54872;BME280;43914;57.680;11.982;2023-03-14T00:36:04;96747.05;;;4.82;100.00
54872;BME280;43914;57.680;11.982;2023-03-14T00:38:32;96748.25;;;4.83;100.00
54872;BME280;43914;57.680;11.982;2023-03-14T00:40:58;96754.35;;;4.78;100.00
54872;BME280;43914;57.680;11.982;2023-03-14T00:43:24;96755.19;;;4.77;100.00
54872;BME280;43914;57.680;11.982;2023-03-14T00:45:51;96763.95;;;4.76;100.00
54872;BME280;43914;57.680;11.982;2023-03-14T00:48:18;96764.56;;;4.74;100.00
54872;BME280;43914;57.680;11.982;2023-03-14T00:50:44;96767.89;;;4.75;100.00
54872;BME280;43914;57.680;11.982;2023-03-14T00:53:10;96772.99;;;4.76;100.00
54872;BME280;43914;57.680;11.982;2023-03-14T00:55:38;96776.88;;;4.76;100.00
54872;BME280;43914;57.680;11.982;2023-03-14T00:58:03;96780.23;;;4.75;100.00
54872;BME280;43914;57.680;11.982;2023-03-14T01:00:29;96792.89;;;4.76;100.00
54872;BME280;43914;57.680;11.982;2023-03-14T01:02:54;96795.13;;;4.72;100.00
54872;BME280;43914;57.680;11.982;2023-03-14T01:05:21;96796.42;;;4.66;100.00
54872;BME280;43914;57.680;11.982;2023-03-14T01:07:47;96801.26;;;4.62;100.00
54872;BME280;43914;57.680;11.982;2023-03-14T01:10:13;96806.10;;;4.61;100.00
54872;BME280;43914;57.680;11.982;2023-03-14T01:12:39;96810.42;;;4.59;100.00
54872;BME280;43914;57.680;11.982;2023-03-14T01:15:04;96821.52;;;4.51;100.00
54872;BME280;43914;57.680;11.982;2023-03-14T01:17:30;96824.39;;;4.47;100.00
54872;BME280;43914;57.680;11.982;2023-03-14T01:19:55;96825.04;;;4.41;100.00
54872;BME280;43914;57.680;11.982;2023-03-14T01:22:21;96831.73;;;4.37;100.00
54872;BME280;43914;57.680;11.982;2023-03-14T01:24:46;96832.65;;;4.32;100.00
54872;BME280;43914;57.680;11.982;2023-03-14T01:27:12;96833.34;;;4.28;100.00
54872;BME280;43914;57.680;11.982;2023-03-14T01:29:38;96837.73;;;4.24;100.00
54872;BME280;43914;57.680;11.982;2023-03-14T01:32:04;96848.04;;;4.21;100.00
54872;BME280;43914;57.680;11.982;2023-03-14T01:34:30;96845.52;;;4.13;100.00
54872;BME280;43914;57.680;11.982;2023-03-14T01:36:55;96845.07;;;4.06;100.00
54872;BME280;43914;57.680;11.982;2023-03-14T01:39:20;96848.62;;;4.02;100.00
54872;BME280;43914;57.680;11.982;2023-03-14T01:41:46;96845.58;;;3.98;100.00
54872;BME280;43914;57.680;11.982;2023-03-14T01:44:12;96852.69;;;3.98;100.00
54872;BME280;43914;57.680;11.982;2023-03-14T01:46:42;96859.86;;;3.95;100.00
54872;BME280;43914;57.680;11.982;2023-03-14T01:54:36;96862.95;;;3.82;100.00
54872;BME280;43914;57.680;11.982;2023-03-14T02:00:00;96864.59;;;3.72;100.00
54872;BME280;43914;57.680;11.982;2023-03-14T02:02:29;96862.32;;;3.67;100.00
54872;BME280;43914;57.680;11.982;2023-03-14T02:04:57;96862.40;;;3.65;100.00
54872;BME280;43914;57.680;11.982;2023-03-14T02:07:35;96865.31;;;3.62;100.00
54872;BME280;43914;57.680;11.982;2023-03-14T02:10:03;96863.39;;;3.61;100.00
54872;BME280;43914;57.680;11.982;2023-03-14T02:12:30;96870.80;;;3.60;100.00
54872;BME280;43914;57.680;11.982;2023-03-14T02:14:55;96867.61;;;3.55;100.00
54872;BME280;43914;57.680;11.982;2023-03-14T02:17:22;96869.36;;;3.58;100.00
54872;BME280;43914;57.680;11.982;2023-03-14T02:22:40;96865.89;;;3.56;100.00
54872;BME280;43914;57.680;11.982;2023-03-14T02:25:31;96866.96;;;3.51;100.00
54872;BME280;43914;57.680;11.982;2023-03-14T02:28:02;96869.52;;;3.50;100.00
54872;BME280;43914;57.680;11.982;2023-03-14T02:30:29;96864.61;;;3.49;100.00
54872;BME280;43914;57.680;11.982;2023-03-14T02:33:00;96861.99;;;3.48;100.00
54872;BME280;43914;57.680;11.982;2023-03-14T02:35:32;96861.44;;;3.46;100.00
54872;BME280;43914;57.680;11.982;2023-03-14T02:38:40;96856.77;;;3.44;100.00
54872;BME280;43914;57.680;11.982;2023-03-14T02:41:09;96853.33;;;3.44;100.00
54872;BME280;43914;57.680;11.982;2023-03-14T02:43:35;96865.84;;;3.44;100.00
54872;BME280;43914;57.680;11.982;2023-03-14T02:46:01;96867.63;;;3.40;100.00
54872;BME280;43914;57.680;11.982;2023-03-14T02:48:34;96867.12;;;3.39;100.00
54872;BME280;43914;57.680;11.982;2023-03-14T02:51:01;96869.86;;;3.38;100.00
54872;BME280;43914;57.680;11.982;2023-03-14T02:53:30;96865.38;;;3.36;100.00
54872;BME280;43914;57.680;11.982;2023-03-14T02:55:57;96866.75;;;3.36;100.00
54872;BME280;43914;57.680;11.982;2023-03-14T02:58:23;96867.99;;;3.35;100.00
54872;BME280;43914;57.680;11.982;2023-03-14T03:00:49;96864.94;;;3.33;100.00
54872;BME280;43914;57.680;11.982;2023-03-14T03:03:15;96869.29;;;3.30;100.00
54872;BME280;43914;57.680;11.982;2023-03-14T03:05:41;96873.89;;;3.29;100.00
54872;BME280;43914;57.680;11.982;2023-03-14T03:08:08;96881.55;;;3.30;100.00
54872;BME280;43914;57.680;11.982;2023-03-14T03:10:34;96885.17;;;3.31;100.00
54872;BME280;43914;57.680;11.982;2023-03-14T03:12:59;96883.73;;;3.30;100.00
54872;BME280;43914;57.680;11.982;2023-03-14T03:15:25;96872.94;;;3.29;100.00
54872;BME280;43914;57.680;11.982;2023-03-14T03:17:51;96870.08;;;3.30;100.00
54872;BME280;43914;57.680;11.982;2023-03-14T03:20:16;96872.73;;;3.29;100.00
54872;BME280;43914;57.680;11.982;2023-03-14T03:22:41;96871.99;;;3.30;100.00
54872;BME280;43914;57.680;11.982;2023-03-14T03:25:08;96877.50;;;3.27;100.00
54872;BME280;43914;57.680;11.982;2023-03-14T03:27:36;96865.70;;;3.18;100.00
54872;BME280;43914;57.680;11.982;2023-03-14T03:30:06;96872.27;;;3.23;100.00
54872;BME280;43914;57.680;11.982;2023-03-14T03:32:34;96874.06;;;3.21;100.00
54872;BME280;43914;57.680;11.982;2023-03-14T03:35:00;96867.73;;;3.17;100.00
54872;BME280;43914;57.680;11.982;2023-03-14T03:37:25;96872.14;;;3.19;100.00
54872;BME280;43914;57.680;11.982;2023-03-14T03:39:51;96883.65;;;3.22;100.00
54872;BME280;43914;57.680;11.982;2023-03-14T03:42:17;96887.27;;;3.20;100.00
54872;BME280;43914;57.680;11.982;2023-03-14T03:44:43;96893.36;;;3.14;100.00
54872;BME280;43914;57.680;11.982;2023-03-14T03:47:09;96897.95;;;3.13;100.00
54872;BME280;43914;57.680;11.982;2023-03-14T03:49:34;96908.31;;;3.14;100.00
54872;BME280;43914;57.680;11.982;2023-03-14T03:52:00;96907.95;;;3.14;100.00
54872;BME280;43914;57.680;11.982;2023-03-14T03:54:26;96907.24;;;3.15;100.00
54872;BME280;43914;57.680;11.982;2023-03-14T03:56:51;96900.91;;;3.17;100.00
54872;BME280;43914;57.680;11.982;2023-03-14T03:59:17;96901.09;;;3.18;100.00
54872;BME280;43914;57.680;11.982;2023-03-14T04:01:43;96899.94;;;3.19;100.00
54872;BME280;43914;57.680;11.982;2023-03-14T04:04:08;96897.10;;;3.15;100.00
54872;BME280;43914;57.680;11.982;2023-03-14T04:06:34;96896.71;;;3.17;100.00
54872;BME280;43914;57.680;11.982;2023-03-14T04:09:00;96898.28;;;3.16;100.00
54872;BME280;43914;57.680;11.982;2023-03-14T04:11:25;96895.60;;;3.15;100.00
54872;BME280;43914;57.680;11.982;2023-03-14T04:13:51;96893.65;;;3.15;100.00
54872;BME280;43914;57.680;11.982;2023-03-14T04:16:20;96896.91;;;3.12;100.00
54872;BME280;43914;57.680;11.982;2023-03-14T04:18:46;96899.27;;;3.15;100.00
54872;BME280;43914;57.680;11.982;2023-03-14T04:21:12;96894.34;;;3.13;100.00
54872;BME280;43914;57.680;11.982;2023-03-14T04:23:37;96909.23;;;3.17;100.00
54872;BME280;43914;57.680;11.982;2023-03-14T04:26:03;96910.52;;;3.14;100.00
54872;BME280;43914;57.680;11.982;2023-03-14T04:28:29;96905.79;;;3.14;100.00
54872;BME280;43914;57.680;11.982;2023-03-14T04:30:54;96903.80;;;3.16;100.00
54872;BME280;43914;57.680;11.982;2023-03-14T04:33:20;96907.44;;;3.15;100.00
54872;BME280;43914;57.680;11.982;2023-03-14T04:35:46;96908.38;;;3.17;100.00
54872;BME280;43914;57.680;11.982;2023-03-14T04:38:12;96915.45;;;3.20;100.00
54872;BME280;43914;57.680;11.982;2023-03-14T04:40:39;96916.59;;;3.19;100.00
54872;BME280;43914;57.680;11.982;2023-03-14T04:43:05;96922.82;;;3.17;100.00
54872;BME280;43914;57.680;11.982;2023-03-14T04:45:30;96923.21;;;3.14;100.00
54872;BME280;43914;57.680;11.982;2023-03-14T04:47:56;96927.05;;;3.16;100.00
54872;BME280;43914;57.680;11.982;2023-03-14T04:50:21;96933.13;;;3.17;100.00
54872;BME280;43914;57.680;11.982;2023-03-14T04:52:47;96933.95;;;3.16;100.00
54872;BME280;43914;57.680;11.982;2023-03-14T04:55:13;96936.95;;;3.15;100.00
54872;BME280;43914;57.680;11.982;2023-03-14T04:57:39;96941.35;;;3.13;100.00
54872;BME280;43914;57.680;11.982;2023-03-14T05:00:05;96948.48;;;3.14;100.00
54872;BME280;43914;57.680;11.982;2023-03-14T05:02:32;96950.66;;;3.13;100.00
54872;BME280;43914;57.680;11.982;2023-03-14T05:04:57;96948.77;;;3.13;100.00
54872;BME280;43914;57.680;11.982;2023-03-14T05:07:23;96946.02;;;3.15;100.00
54872;BME280;43914;57.680;11.982;2023-03-14T05:09:49;96940.27;;;3.14;100.00
54872;BME280;43914;57.680;11.982;2023-03-14T05:12:14;96945.98;;;3.11;100.00
54872;BME280;43914;57.680;11.982;2023-03-14T05:14:40;96954.48;;;3.07;100.00
54872;BME280;43914;57.680;11.982;2023-03-14T05:17:05;96954.52;;;3.04;100.00
54872;BME280;43914;57.680;11.982;2023-03-14T05:19:31;96961.48;;;3.00;100.00
54872;BME280;43914;57.680;11.982;2023-03-14T05:21:57;96961.02;;;2.96;100.00
54872;BME280;43914;57.680;11.982;2023-03-14T05:24:22;96962.02;;;2.94;100.00
54872;BME280;43914;57.680;11.982;2023-03-14T05:26:48;96959.05;;;2.92;100.00
54872;BME280;43914;57.680;11.982;2023-03-14T05:29:13;96963.04;;;2.92;100.00
54872;BME280;43914;57.680;11.982;2023-03-14T05:31:39;96962.96;;;2.92;100.00
54872;BME280;43914;57.680;11.982;2023-03-14T05:34:04;96962.00;;;2.91;100.00
54872;BME280;43914;57.680;11.982;2023-03-14T05:36:30;96962.95;;;2.90;100.00
54872;BME280;43914;57.680;11.982;2023-03-14T05:38:58;96962.41;;;2.90;100.00
54872;BME280;43914;57.680;11.982;2023-03-14T05:41:24;96965.76;;;2.88;100.00
54872;BME280;43914;57.680;11.982;2023-03-14T05:43:49;96971.09;;;2.89;100.00
54872;BME280;43914;57.680;11.982;2023-03-14T05:46:15;96968.71;;;2.89;100.00
54872;BME280;43914;57.680;11.982;2023-03-14T05:48:41;96967.26;;;2.93;100.00
54872;BME280;43914;57.680;11.982;2023-03-14T05:51:06;96968.13;;;2.92;100.00
54872;BME280;43914;57.680;11.982;2023-03-14T05:53:32;96968.60;;;2.94;100.00
54872;BME280;43914;57.680;11.982;2023-03-14T05:55:57;96967.95;;;2.96;100.00
54872;BME280;43914;57.680;11.982;2023-03-14T05:58:23;96966.77;;;2.95;100.00
54872;BME280;43914;57.680;11.982;2023-03-14T06:00:49;96965.18;;;2.97;100.00
54872;BME280;43914;57.680;11.982;2023-03-14T06:03:15;96966.81;;;2.96;100.00
54872;BME280;43914;57.680;11.982;2023-03-14T06:05:41;96971.80;;;2.96;100.00
54872;BME280;43914;57.680;11.982;2023-03-14T06:08:06;96977.98;;;2.96;100.00
54872;BME280;43914;57.680;11.982;2023-03-14T06:10:32;96979.37;;;2.98;100.00
54872;BME280;43914;57.680;11.982;2023-03-14T06:12:57;96984.58;;;2.98;100.00
54872;BME280;43914;57.680;11.982;2023-03-14T06:15:23;96982.66;;;3.00;100.00
54872;BME280;43914;57.680;11.982;2023-03-14T06:17:48;96992.38;;;3.05;100.00
54872;BME280;43914;57.680;11.982;2023-03-14T06:20:14;96991.80;;;3.08;100.00
54872;BME280;43914;57.680;11.982;2023-03-14T06:22:39;96995.10;;;3.11;100.00
54872;BME280;43914;57.680;11.982;2023-03-14T06:25:06;96994.35;;;3.12;100.00
54872;BME280;43914;57.680;11.982;2023-03-14T06:27:33;96997.79;;;3.14;100.00
54872;BME280;43914;57.680;11.982;2023-03-14T06:29:58;96994.92;;;3.16;100.00
54872;BME280;43914;57.680;11.982;2023-03-14T06:32:24;96993.70;;;3.16;100.00
54872;BME280;43914;57.680;11.982;2023-03-14T06:34:49;96996.34;;;3.18;100.00
54872;BME280;43914;57.680;11.982;2023-03-14T06:37:15;96998.70;;;3.16;100.00
54872;BME280;43914;57.680;11.982;2023-03-14T06:39:41;96999.30;;;3.18;100.00
54872;BME280;43914;57.680;11.982;2023-03-14T06:42:06;97004.07;;;3.20;100.00
54872;BME280;43914;57.680;11.982;2023-03-14T06:44:32;97011.55;;;3.22;100.00
54872;BME280;43914;57.680;11.982;2023-03-14T06:46:57;97015.95;;;3.22;100.00
54872;BME280;43914;57.680;11.982;2023-03-14T06:49:23;97028.45;;;3.27;100.00
54872;BME280;43914;57.680;11.982;2023-03-14T06:51:48;97033.61;;;3.28;100.00
54872;BME280;43914;57.680;11.982;2023-03-14T06:54:14;97039.39;;;3.29;100.00
54872;BME280;43914;57.680;11.982;2023-03-14T06:56:39;97045.44;;;3.29;100.00
54872;BME280;43914;57.680;11.982;2023-03-14T06:59:05;97039.30;;;3.30;100.00
54872;BME280;43914;57.680;11.982;2023-03-14T07:01:31;97043.94;;;3.31;100.00
54872;BME280;43914;57.680;11.982;2023-03-14T07:04:00;97041.91;;;3.33;100.00
54872;BME280;43914;57.680;11.982;2023-03-14T07:06:26;97043.14;;;3.32;100.00
54872;BME280;43914;57.680;11.982;2023-03-14T07:08:55;97049.87;;;3.33;100.00
54872;BME280;43914;57.680;11.982;2023-03-14T07:11:22;97048.69;;;3.35;100.00
54872;BME280;43914;57.680;11.982;2023-03-14T07:13:48;97050.74;;;3.37;100.00
54872;BME280;43914;57.680;11.982;2023-03-14T07:16:13;97062.45;;;3.40;100.00
54872;BME280;43914;57.680;11.982;2023-03-14T07:18:38;97063.35;;;3.42;100.00
54872;BME280;43914;57.680;11.982;2023-03-14T07:21:06;97065.95;;;3.40;100.00
54872;BME280;43914;57.680;11.982;2023-03-14T07:23:33;97073.64;;;3.40;100.00
54872;BME280;43914;57.680;11.982;2023-03-14T07:25:58;97077.27;;;3.40;100.00
54872;BME280;43914;57.680;11.982;2023-03-14T07:28:24;97076.97;;;3.39;100.00
54872;BME280;43914;57.680;11.982;2023-03-14T07:30:50;97072.01;;;3.38;100.00
54872;BME280;43914;57.680;11.982;2023-03-14T07:33:15;97083.91;;;3.36;100.00
54872;BME280;43914;57.680;11.982;2023-03-14T07:35:41;97075.70;;;3.34;100.00
54872;BME280;43914;57.680;11.982;2023-03-14T07:38:06;97077.95;;;3.31;100.00
54872;BME280;43914;57.680;11.982;2023-03-14T07:40:32;97081.27;;;3.30;100.00
54872;BME280;43914;57.680;11.982;2023-03-14T07:42:57;97078.96;;;3.31;100.00
54872;BME280;43914;57.680;11.982;2023-03-14T07:45:23;97081.95;;;3.36;100.00
54872;BME280;43914;57.680;11.982;2023-03-14T07:47:48;97080.88;;;3.42;100.00
54872;BME280;43914;57.680;11.982;2023-03-14T07:50:14;97084.61;;;3.45;100.00
54872;BME280;43914;57.680;11.982;2023-03-14T07:52:39;97084.95;;;3.46;100.00
54872;BME280;43914;57.680;11.982;2023-03-14T07:55:05;97081.28;;;3.50;100.00
54872;BME280;43914;57.680;11.982;2023-03-14T07:57:30;97078.79;;;3.53;100.00
54872;BME280;43914;57.680;11.982;2023-03-14T07:59:56;97084.09;;;3.58;100.00
54872;BME280;43914;57.680;11.982;2023-03-14T08:02:22;97090.78;;;3.62;100.00
54872;BME280;43914;57.680;11.982;2023-03-14T08:04:49;97096.55;;;3.63;100.00
54872;BME280;43914;57.680;11.982;2023-03-14T08:07:15;97100.84;;;3.68;100.00
54872;BME280;43914;57.680;11.982;2023-03-14T08:09:41;97106.66;;;3.71;100.00
54872;BME280;43914;57.680;11.982;2023-03-14T08:12:06;97103.44;;;3.77;100.00
54872;BME280;43914;57.680;11.982;2023-03-14T08:14:32;97108.30;;;3.85;100.00
54872;BME280;43914;57.680;11.982;2023-03-14T08:16:57;97108.85;;;3.90;100.00
54872;BME280;43914;57.680;11.982;2023-03-14T08:19:23;97116.32;;;3.94;100.00
54872;BME280;43914;57.680;11.982;2023-03-14T08:21:48;97119.86;;;3.98;100.00
54872;BME280;43914;57.680;11.982;2023-03-14T08:24:14;97125.71;;;4.00;100.00
54872;BME280;43914;57.680;11.982;2023-03-14T08:26:40;97125.52;;;4.04;100.00
54872;BME280;43914;57.680;11.982;2023-03-14T08:29:05;97130.09;;;4.07;100.00
54872;BME280;43914;57.680;11.982;2023-03-14T08:31:31;97121.80;;;4.04;100.00
54872;BME280;43914;57.680;11.982;2023-03-14T08:33:59;97117.71;;;4.07;100.00
54872;BME280;43914;57.680;11.982;2023-03-14T08:36:25;97121.07;;;4.09;100.00
54872;BME280;43914;57.680;11.982;2023-03-14T08:38:50;97123.08;;;4.09;100.00
54872;BME280;43914;57.680;11.982;2023-03-14T08:41:16;97131.41;;;4.09;100.00
54872;BME280;43914;57.680;11.982;2023-03-14T08:43:41;97131.79;;;4.11;100.00
54872;BME280;43914;57.680;11.982;2023-03-14T08:46:07;97138.25;;;4.13;100.00
54872;BME280;43914;57.680;11.982;2023-03-14T08:48:32;97144.60;;;4.12;100.00
54872;BME280;43914;57.680;11.982;2023-03-14T08:51:08;97145.86;;;4.13;100.00
54872;BME280;43914;57.680;11.982;2023-03-14T08:53:34;97150.91;;;4.20;100.00
54872;BME280;43914;57.680;11.982;2023-03-14T08:56:00;97156.48;;;4.29;100.00
54872;BME280;43914;57.680;11.982;2023-03-14T08:58:27;97158.55;;;4.32;100.00
54872;BME280;43914;57.680;11.982;2023-03-14T09:00:53;97163.20;;;4.36;100.00
54872;BME280;43914;57.680;11.982;2023-03-14T09:03:18;97166.48;;;4.37;100.00
54872;BME280;43914;57.680;11.982;2023-03-14T09:05:44;97165.64;;;4.41;100.00
54872;BME280;43914;57.680;11.982;2023-03-14T09:08:10;97166.05;;;4.45;100.00
54872;BME280;43914;57.680;11.982;2023-03-14T09:10:36;97163.85;;;4.49;100.00
54872;BME280;43914;57.680;11.982;2023-03-14T09:13:01;97169.33;;;4.54;100.00
54872;BME280;43914;57.680;11.982;2023-03-14T09:15:27;97168.85;;;4.53;100.00
54872;BME280;43914;57.680;11.982;2023-03-14T09:17:52;97172.08;;;4.53;100.00
54872;BME280;43914;57.680;11.982;2023-03-14T09:20:17;97181.33;;;4.51;100.00
54872;BME280;43914;57.680;11.982;2023-03-14T09:22:43;97187.02;;;4.45;100.00
54872;BME280;43914;57.680;11.982;2023-03-14T09:25:09;97192.31;;;4.39;100.00
54872;BME280;43914;57.680;11.982;2023-03-14T09:27:35;97191.57;;;4.39;100.00
54872;BME280;43914;57.680;11.982;2023-03-14T09:30:01;97198.86;;;4.44;100.00
54872;BME280;43914;57.680;11.982;2023-03-14T09:32:27;97199.38;;;4.47;100.00
54872;BME280;43914;57.680;11.982;2023-03-14T09:34:52;97200.11;;;4.46;100.00
54872;BME280;43914;57.680;11.982;2023-03-14T09:37:18;97197.59;;;4.52;100.00
54872;BME280;43914;57.680;11.982;2023-03-14T09:39:45;97203.20;;;4.60;100.00
54872;BME280;43914;57.680;11.982;2023-03-14T09:42:16;97211.63;;;4.65;100.00
54872;BME280;43914;57.680;11.982;2023-03-14T09:47:16;97231.86;;;4.71;100.00
54872;BME280;43914;57.680;11.982;2023-03-14T09:49:45;97233.55;;;4.72;100.00
54872;BME280;43914;57.680;11.982;2023-03-14T09:52:32;97234.90;;;4.75;100.00
54872;BME280;43914;57.680;11.982;2023-03-14T09:55:02;97244.48;;;4.81;100.00
54872;BME280;43914;57.680;11.982;2023-03-14T09:57:28;97249.45;;;4.77;100.00
54872;BME280;43914;57.680;11.982;2023-03-14T09:59:56;97241.67;;;4.76;100.00
54872;BME280;43914;57.680;11.982;2023-03-14T10:02:33;97241.89;;;4.82;100.00
54872;BME280;43914;57.680;11.982;2023-03-14T10:04:59;97246.56;;;4.79;100.00
54872;BME280;43914;57.680;11.982;2023-03-14T10:07:30;97251.30;;;4.73;100.00
54872;BME280;43914;57.680;11.982;2023-03-14T10:09:57;97256.37;;;4.69;100.00
54872;BME280;43914;57.680;11.982;2023-03-14T10:12:35;97262.29;;;4.63;100.00
54872;BME280;43914;57.680;11.982;2023-03-14T10:15:07;97274.05;;;4.64;100.00
54872;BME280;43914;57.680;11.982;2023-03-14T10:17:42;97282.05;;;4.62;100.00
54872;BME280;43914;57.680;11.982;2023-03-14T10:20:27;97279.56;;;4.57;100.00
54872;BME280;43914;57.680;11.982;2023-03-14T10:23:19;97294.34;;;4.59;100.00
54872;BME280;43914;57.680;11.982;2023-03-14T10:26:30;97287.23;;;4.61;100.00
54872;BME280;43914;57.680;11.982;2023-03-14T10:28:39;97298.31;;;4.66;100.00
54872;BME280;43914;57.680;11.982;2023-03-14T10:31:07;97300.54;;;4.70;100.00
54872;BME280;43914;57.680;11.982;2023-03-14T10:33:35;97308.89;;;4.77;100.00
54872;BME280;43914;57.680;11.982;2023-03-14T10:36:03;97321.01;;;4.79;100.00
54872;BME280;43914;57.680;11.982;2023-03-14T10:38:33;97320.30;;;4.76;100.00
54872;BME280;43914;57.680;11.982;2023-03-14T10:40:59;97314.86;;;4.71;100.00
54872;BME280;43914;57.680;11.982;2023-03-14T10:43:31;97323.88;;;4.67;100.00
54872;BME280;43914;57.680;11.982;2023-03-14T10:45:59;97327.23;;;4.65;100.00
54872;BME280;43914;57.680;11.982;2023-03-14T10:48:38;97333.58;;;4.60;100.00
54872;BME280;43914;57.680;11.982;2023-03-14T10:51:30;97332.98;;;4.56;100.00
54872;BME280;43914;57.680;11.982;2023-03-14T10:54:15;97340.97;;;4.56;100.00
54872;BME280;43914;57.680;11.982;2023-03-14T10:56:44;97339.73;;;4.54;100.00
54872;BME280;43914;57.680;11.982;2023-03-14T10:59:14;97352.08;;;4.55;100.00
54872;BME280;43914;57.680;11.982;2023-03-14T11:02:00;97353.61;;;4.56;100.00
54872;BME280;43914;57.680;11.982;2023-03-14T11:07:38;97356.26;;;4.59;100.00
54872;BME280;43914;57.680;11.982;2023-03-14T11:10:18;97366.84;;;4.59;100.00
54872;BME280;43914;57.680;11.982;2023-03-14T11:13:09;97363.54;;;4.62;100.00
54872;BME280;43914;57.680;11.982;2023-03-14T11:16:09;97371.71;;;4.70;100.00
54872;BME280;43914;57.680;11.982;2023-03-14T11:26:46;97396.12;;;5.11;91.01
54872;BME280;43914;57.680;11.982;2023-03-14T11:31:47;97404.75;;;5.02;88.79
54872;BME280;43914;57.680;11.982;2023-03-14T11:34:29;97407.30;;;5.02;89.45
54872;BME280;43914;57.680;11.982;2023-03-14T11:37:04;97406.86;;;4.98;89.31
54872;BME280;43914;57.680;11.982;2023-03-14T11:39:39;97414.87;;;5.02;91.12
54872;BME280;43914;57.680;11.982;2023-03-14T11:42:10;97419.33;;;5.11;90.43
54872;BME280;43914;57.680;11.982;2023-03-14T11:44:38;97428.35;;;5.21;88.82
54872;BME280;43914;57.680;11.982;2023-03-14T11:49:47;97445.58;;;5.17;84.12
54872;BME280;43914;57.680;11.982;2023-03-14T11:52:25;97432.82;;;5.21;87.05
54872;BME280;43914;57.680;11.982;2023-03-14T11:57:23;97450.91;;;5.28;84.66
54872;BME280;43914;57.680;11.982;2023-03-14T12:00:25;97458.23;;;5.27;86.21
54872;BME280;43914;57.680;11.982;2023-03-14T12:03:14;97463.52;;;5.27;85.79
54872;BME280;43914;57.680;11.982;2023-03-14T12:05:54;97452.09;;;5.28;86.79
54872;BME280;43914;57.680;11.982;2023-03-14T12:08:39;97463.01;;;5.32;87.78
54872;BME280;43914;57.680;11.982;2023-03-14T12:13:52;97466.20;;;5.26;89.87
54872;BME280;43914;57.680;11.982;2023-03-14T12:16:32;97469.81;;;5.20;89.54
54872;BME280;43914;57.680;11.982;2023-03-14T12:19:23;97477.43;;;5.18;87.44
54872;BME280;43914;57.680;11.982;2023-03-14T12:24:30;97482.13;;;5.08;83.98
54872;BME280;43914;57.680;11.982;2023-03-14T12:26:58;97489.86;;;5.06;85.19
54872;BME280;43914;57.680;11.982;2023-03-14T12:29:25;97496.75;;;5.13;84.69
54872;BME280;43914;57.680;11.982;2023-03-14T12:34:28;97510.66;;;5.16;83.60
54872;BME280;43914;57.680;11.982;2023-03-14T12:44:45;97527.30;;;5.09;87.20
54872;BME280;43914;57.680;11.982;2023-03-14T12:49:50;97540.58;;;5.08;90.04
54872;BME280;43914;57.680;11.982;2023-03-14T12:55:25;97554.63;;;5.01;90.15
54872;BME280;43914;57.680;11.982;2023-03-14T13:00:31;97559.35;;;5.09;92.34
54872;BME280;43914;57.680;11.982;2023-03-14T13:03:22;97560.36;;;5.21;91.15
54872;BME280;43914;57.680;11.982;2023-03-14T13:06:00;97567.03;;;5.42;89.13
54872;BME280;43914;57.680;11.982;2023-03-14T13:08:44;97571.46;;;5.72;89.40
54872;BME280;43914;57.680;11.982;2023-03-14T13:11:15;97572.56;;;5.78;84.65
54872;BME280;43914;57.680;11.982;2023-03-14T13:13:47;97575.80;;;5.82;82.93
54872;BME280;43914;57.680;11.982;2023-03-14T13:16:19;97574.59;;;6.02;84.95
54872;BME280;43914;57.680;11.982;2023-03-14T13:18:48;97600.66;;;6.34;81.70
54872;BME280;43914;57.680;11.982;2023-03-14T13:21:19;97605.01;;;6.56;79.45
54872;BME280;43914;57.680;11.982;2023-03-14T13:26:40;97601.79;;;7.12;78.83
54872;BME280;43914;57.680;11.982;2023-03-14T13:29:16;97604.84;;;7.15;76.27
54872;BME280;43914;57.680;11.982;2023-03-14T13:31:47;97613.98;;;6.97;77.09
54872;BME280;43914;57.680;11.982;2023-03-14T13:34:13;97623.72;;;6.74;77.33
54872;BME280;43914;57.680;11.982;2023-03-14T13:36:39;97633.12;;;6.56;76.56
54872;BME280;43914;57.680;11.982;2023-03-14T13:42:03;97641.56;;;5.96;75.44
54872;BME280;43914;57.680;11.982;2023-03-14T13:44:38;97659.50;;;5.77;74.20
54872;BME280;43914;57.680;11.982;2023-03-14T13:47:09;97660.42;;;5.56;70.35
54872;BME280;43914;57.680;11.982;2023-03-14T13:49:36;97660.46;;;5.42;68.91
54872;BME280;43914;57.680;11.982;2023-03-14T13:52:04;97666.73;;;5.38;69.43
54872;BME280;43914;57.680;11.982;2023-03-14T13:54:31;97674.66;;;5.60;71.09
54872;BME280;43914;57.680;11.982;2023-03-14T13:57:01;97679.04;;;5.67;72.02
54872;BME280;43914;57.680;11.982;2023-03-14T13:59:29;97688.87;;;5.64;69.95
54872;BME280;43914;57.680;11.982;2023-03-14T14:01:58;97692.46;;;5.50;69.64